Time;durP1;ratioP1;P1;durP2;ratioP2;P2;SDS_P1;SDS_P2;PMS_P1;PMS_P2;Temp;Humidity;BMP_temperature;BMP_pressure;BME280_temperature;BME280_humidity;BME280_pressure;Samples;Min_cycle;Max_cycle;Signal;HPM_P1;HPM_P2
2020/12/25 00:01:04;;;;;;;1.67;0.60;;;;;;;;;;4350959;33;20163;-78
2020/12/25 00:04:20;;;;;;;3.10;0.70;;;;;;;;;;4347384;33;20185;-77
2020/12/25 00:06:55;;;;;;;3.43;0.60;;;;;;;;;;4359030;32;20205;-77
2020/12/25 00:09:29;;;;;;;2.00;0.67;;;;;;;;;;4286362;33;20212;-78
2020/12/25 00:12:00;;;;;;;2.43;0.80;;;;;;;;;;4274987;33;20176;-77
2020/12/25 00:14:31;;;;;;;2.27;0.60;;;;;;;;;;4342306;33;20229;-77
2020/12/25 00:17:00;;;;;;;2.43;0.50;;;;;;;;;;4348995;33;20155;-78
2020/12/25 00:19:28;;;;;;;1.80;0.60;;;;;;;;;;4345436;33;20154;-77
2020/12/25 00:22:04;;;;;;;1.77;0.60;;;;;;;;;;4333207;33;20227;-77
2020/12/25 00:24:35;;;;;;;2.97;0.70;;;;;;;;;;4333562;33;20190;-77
2020/12/25 00:27:00;;;;;;;3.30;0.87;;;;;;;;;;4333567;33;20155;-77
2020/12/25 00:29:49;;;;;;;;;;;;;;;;;;;;;
2020/12/25 00:32:34;;;;;;;;;;;;;;;;;;;;;
2020/12/25 00:35:12;;;;;;;2.70;0.90;;;;;;;;;;4346850;33;20458;-78
2020/12/25 00:37:59;;;;;;;2.63;0.77;;;;;;;;;;4346899;33;20154;-77
2020/12/25 00:40:43;;;;;;;3.37;1.00;;;;;;;;;;4332951;33;20186;-77
2020/12/25 00:43:37;;;;;;;;;;;;;;;;;;;;;
2020/12/25 00:46:14;;;;;;;2.30;0.90;;;;;;;;;;4346741;33;20143;-78
2020/12/25 00:48:48;;;;;;;2.23;0.80;;;;;;;;;;4331673;33;20147;-78
2020/12/25 00:51:21;;;;;;;2.90;1.00;;;;;;;;;;4337687;33;20150;-78
2020/12/25 00:53:49;;;;;;;1.83;0.90;;;;;;;;;;4347570;33;20581;-77
2020/12/25 00:56:15;;;;;;;2.90;0.73;;;;;;;;;;4347953;33;20182;-77
2020/12/25 00:58:41;;;;;;;2.57;1.00;;;;;;;;;;4347518;33;20179;-77
2020/12/25 01:01:12;;;;;;;2.80;1.13;;;;;;;;;;4347528;33;20452;-77
2020/12/25 01:03:37;;;;;;;7.40;1.07;;;;;;;;;;4347381;33;20147;-77
2020/12/25 01:06:20;;;;;;;4.30;1.20;;;;;;;;;;4347421;33;20607;-77
2020/12/25 01:08:47;;;;;;;4.07;0.97;;;;;;;;;;4347653;33;20691;-78
2020/12/25 01:11:16;;;;;;;3.93;1.20;;;;;;;;;;4347420;33;20158;-77
2020/12/25 01:13:47;;;;;;;6.30;1.30;;;;;;;;;;4347515;33;20159;-77
2020/12/25 01:16:16;;;;;;;4.77;1.13;;;;;;;;;;4348098;33;20488;-77
2020/12/25 01:18:53;;;;;;;4.50;1.30;;;;;;;;;;4361015;32;20182;-77
2020/12/25 01:21:29;;;;;;;4.37;1.20;;;;;;;;;;4347522;33;20225;-77
2020/12/25 01:24:02;;;;;;;5.40;1.20;;;;;;;;;;4361472;32;20571;-77
2020/12/25 01:26:29;;;;;;;3.90;1.23;;;;;;;;;;4361334;32;20123;-77
2020/12/25 01:29:00;;;;;;;3.63;1.30;;;;;;;;;;4347311;33;20166;-77
2020/12/25 01:31:25;;;;;;;10.80;1.10;;;;;;;;;;4347637;33;20174;-78
2020/12/25 01:33:57;;;;;;;4.20;1.10;;;;;;;;;;4346985;33;20210;-77
2020/12/25 01:36:22;;;;;;;6.77;1.10;;;;;;;;;;4347387;33;20162;-77
2020/12/25 01:38:48;;;;;;;4.77;1.30;;;;;;;;;;4347471;33;20217;-77
2020/12/25 01:41:13;;;;;;;4.80;1.37;;;;;;;;;;4347038;33;20229;-77
2020/12/25 01:43:39;;;;;;;3.67;1.20;;;;;;;;;;4347211;33;20185;-77
2020/12/25 01:46:05;;;;;;;3.87;1.17;;;;;;;;;;4346941;33;20178;-77
2020/12/25 01:48:31;;;;;;;4.93;1.23;;;;;;;;;;4347231;33;20288;-77
2020/12/25 01:50:59;;;;;;;3.43;1.00;;;;;;;;;;4347061;33;20184;-78
2020/12/25 01:53:25;;;;;;;3.63;1.00;;;;;;;;;;4347251;33;20151;-77
2020/12/25 01:55:52;;;;;;;2.90;1.10;;;;;;;;;;4346879;33;20181;-77
2020/12/25 01:58:24;;;;;;;6.10;1.10;;;;;;;;;;4347082;33;20651;-78
2020/12/25 02:01:40;;;;;;;6.07;0.97;;;;;;;;;;4360590;33;20177;-77
2020/12/25 02:03:56;;;;;;;2.50;0.90;;;;;;;;;;4353891;33;20162;-77
2020/12/25 02:06:40;;;;;;;;;;;;;;;;;;;;;
2020/12/25 02:09:43;;;;;;;4.20;0.70;;;;;;;;;;4361059;33;20181;-79
2020/12/25 02:12:22;;;;;;;3.30;0.70;;;;;;;;;;4347405;33;20170;-79
2020/12/25 02:14:48;;;;;;;4.73;1.00;;;;;;;;;;4346922;33;20537;-79
2020/12/25 02:17:25;;;;;;;5.73;1.00;;;;;;;;;;4346988;33;20186;-79
2020/12/25 02:20:02;;;;;;;4.20;1.00;;;;;;;;;;4360939;33;20213;-79
2020/12/25 02:22:33;;;;;;;1.57;0.77;;;;;;;;;;4370217;32;20135;-78
2020/12/25 02:24:58;;;;;;;2.97;1.20;;;;;;;;;;4357263;33;20151;-78
2020/12/25 02:27:24;;;;;;;2.33;0.93;;;;;;;;;;4359534;33;20167;-79
2020/12/25 02:30:26;;;;;;;4.43;0.80;;;;;;;;;;4370292;32;20196;-78
2020/12/25 02:33:02;;;;;;;3.23;0.80;;;;;;;;;;4349352;33;20159;-79
2020/12/25 02:35:27;;;;;;;4.33;1.07;;;;;;;;;;4371301;32;20193;-78
2020/12/25 02:37:53;;;;;;;2.80;0.80;;;;;;;;;;4367300;32;20163;-78
2020/12/25 02:40:25;;;;;;;1.97;1.07;;;;;;;;;;4353134;33;20159;-79
2020/12/25 02:42:50;;;;;;;6.37;0.80;;;;;;;;;;4346409;33;20155;-78
2020/12/25 02:45:16;;;;;;;4.10;0.90;;;;;;;;;;4360758;33;20155;-79
2020/12/25 02:47:41;;;;;;;3.87;0.77;;;;;;;;;;4346303;33;20187;-78
2020/12/25 02:50:24;;;;;;;5.60;0.90;;;;;;;;;;4359749;33;20217;-78
2020/12/25 02:52:59;;;;;;;7.07;0.83;;;;;;;;;;4360012;33;20185;-78
2020/12/25 02:55:27;;;;;;;3.13;0.80;;;;;;;;;;4346108;33;20147;-78
2020/12/25 02:58:20;;;;;;;3.03;0.77;;;;;;;;;;4346133;33;20187;-78
2020/12/25 03:01:06;;;;;;;3.93;0.87;;;;;;;;;;4357803;32;20623;-78
2020/12/25 03:03:32;;;;;;;4.87;1.20;;;;;;;;;;4360580;33;20166;-78
2020/12/25 03:06:11;;;;;;;2.63;0.73;;;;;;;;;;4359891;33;20490;-78
2020/12/25 03:09:03;;;;;;;3.50;1.00;;;;;;;;;;4346458;33;20150;-78
2020/12/25 03:11:39;;;;;;;4.13;0.77;;;;;;;;;;4344033;33;20253;-78
2020/12/25 03:14:05;;;;;;;4.83;1.00;;;;;;;;;;4360296;33;20169;-78
2020/12/25 03:16:42;;;;;;;5.87;0.90;;;;;;;;;;4359914;33;20131;-78
2020/12/25 03:19:13;;;;;;;5.30;1.00;;;;;;;;;;4346467;33;20167;-78
2020/12/25 03:21:50;;;;;;;2.13;0.67;;;;;;;;;;4344533;33;20193;-78
2020/12/25 03:24:24;;;;;;;2.47;0.73;;;;;;;;;;4345998;33;20147;-78
2020/12/25 03:26:55;;;;;;;2.93;0.67;;;;;;;;;;4360275;32;20146;-78
2020/12/25 03:29:26;;;;;;;2.43;0.90;;;;;;;;;;4362518;32;20159;-78
2020/12/25 03:31:58;;;;;;;2.90;1.00;;;;;;;;;;4349222;33;20187;-79
2020/12/25 03:34:57;;;;;;;3.90;1.00;;;;;;;;;;4348703;33;20151;-78
2020/12/25 03:40:09;;;;;;;4.93;1.03;;;;;;;;;;4348928;33;20174;-78
2020/12/25 03:42:47;;;;;;;5.97;1.00;;;;;;;;;;4362699;32;20158;-78
2020/12/25 03:45:12;;;;;;;5.17;1.00;;;;;;;;;;4348956;33;20209;-78
2020/12/25 03:47:46;;;;;;;2.57;0.83;;;;;;;;;;4362096;33;20143;-79
2020/12/25 03:50:17;;;;;;;3.07;1.00;;;;;;;;;;4362933;32;20192;-79
2020/12/25 03:52:57;;;;;;;6.47;1.20;;;;;;;;;;4362562;32;20157;-78
2020/12/25 03:55:30;;;;;;;9.13;1.30;;;;;;;;;;4362319;32;20201;-79
2020/12/25 03:57:56;;;;;;;4.43;1.53;;;;;;;;;;4348263;33;20367;-79
2020/12/25 04:00:21;;;;;;;6.87;1.40;;;;;;;;;;4348476;33;20644;-78
2020/12/25 04:02:54;;;;;;;9.53;1.40;;;;;;;;;;4348953;33;20201;-79
2020/12/25 04:05:25;;;;;;;9.73;1.60;;;;;;;;;;4348392;33;20163;-78
2020/12/25 04:08:02;;;;;;;5.33;1.50;;;;;;;;;;4348776;33;20194;-78
2020/12/25 04:10:35;;;;;;;7.70;1.70;;;;;;;;;;4362431;32;20196;-78
2020/12/25 04:13:08;;;;;;;10.77;2.27;;;;;;;;;;4362068;33;20666;-78
2020/12/25 04:15:47;;;;;;;;;;;;;;;;;;;;;
2020/12/25 04:18:13;;;;;;;7.27;2.83;;;;;;;;;;4362491;33;20158;-78
2020/12/25 04:20:38;;;;;;;9.13;1.90;;;;;;;;;;4361907;32;20455;-78
2020/12/25 04:23:10;;;;;;;6.23;1.90;;;;;;;;;;4347963;33;20558;-78
2020/12/25 04:25:35;;;;;;;9.17;2.17;;;;;;;;;;4361576;33;20545;-78
2020/12/25 04:28:00;;;;;;;8.80;1.80;;;;;;;;;;4362013;33;20147;-79
2020/12/25 04:30:28;;;;;;;6.73;1.53;;;;;;;;;;4361396;33;20205;-78
2020/12/25 04:32:53;;;;;;;7.70;1.50;;;;;;;;;;4347767;33;20217;-78
2020/12/25 04:35:21;;;;;;;10.53;1.50;;;;;;;;;;4348691;33;20490;-78
2020/12/25 04:37:49;;;;;;;7.27;1.50;;;;;;;;;;4347360;33;20611;-78
2020/12/25 04:40:14;;;;;;;13.47;2.03;;;;;;;;;;4347745;33;20167;-78
2020/12/25 04:42:40;;;;;;;9.67;1.70;;;;;;;;;;4361810;32;20567;-78
2020/12/25 04:45:06;;;;;;;12.17;1.70;;;;;;;;;;4361323;32;20204;-78
2020/12/25 04:47:34;;;;;;;6.07;1.47;;;;;;;;;;4361138;32;20583;-78
2020/12/25 04:50:00;;;;;;;5.27;1.33;;;;;;;;;;4347822;33;20163;-79
2020/12/25 04:52:27;;;;;;;11.23;1.50;;;;;;;;;;4348012;33;20205;-78
2020/12/25 04:55:06;;;;;;;10.90;1.47;;;;;;;;;;4347739;33;20186;-78
2020/12/25 04:57:31;;;;;;;5.80;1.20;;;;;;;;;;4361779;32;20150;-78
2020/12/25 04:59:57;;;;;;;5.70;1.07;;;;;;;;;;4347385;33;20159;-78
2020/12/25 05:02:22;;;;;;;6.93;1.30;;;;;;;;;;4347556;33;20505;-78
2020/12/25 05:04:47;;;;;;;5.37;1.50;;;;;;;;;;4347460;33;20212;-78
2020/12/25 05:07:16;;;;;;;11.53;1.53;;;;;;;;;;4360949;32;20193;-78
2020/12/25 05:09:47;;;;;;;4.20;1.27;;;;;;;;;;4347536;33;20300;-78
2020/12/25 05:12:26;;;;;;;10.03;1.40;;;;;;;;;;4347474;33;20608;-78
2020/12/25 05:14:55;;;;;;;8.77;1.40;;;;;;;;;;4361906;33;20181;-78
2020/12/25 05:17:33;;;;;;;8.57;1.50;;;;;;;;;;4346514;33;20178;-78
2020/12/25 05:19:59;;;;;;;9.13;1.40;;;;;;;;;;4347478;33;20209;-78
2020/12/25 05:22:42;;;;;;;7.63;1.37;;;;;;;;;;4347289;33;20182;-78
2020/12/25 05:25:34;;;;;;;7.63;1.27;;;;;;;;;;4347175;33;20171;-78
2020/12/25 05:28:15;;;;;;;9.53;1.53;;;;;;;;;;4347200;33;20237;-78
2020/12/25 05:30:47;;;;;;;8.23;1.60;;;;;;;;;;4347434;33;20167;-78
2020/12/25 05:33:16;;;;;;;10.83;1.40;;;;;;;;;;4347009;33;20202;-78
2020/12/25 05:35:42;;;;;;;7.07;1.10;;;;;;;;;;4346921;33;20220;-78
2020/12/25 05:38:16;;;;;;;12.50;1.63;;;;;;;;;;4360528;32;20132;-78
2020/12/25 05:40:50;;;;;;;5.90;1.20;;;;;;;;;;4360773;32;20178;-78
2020/12/25 05:43:19;;;;;;;9.00;1.50;;;;;;;;;;4361132;32;20139;-78
2020/12/25 05:45:54;;;;;;;8.00;1.23;;;;;;;;;;4346930;33;20258;-78
2020/12/25 05:48:28;;;;;;;12.13;1.40;;;;;;;;;;4360636;32;20123;-78
2020/12/25 05:50:59;;;;;;;5.90;1.17;;;;;;;;;;4346986;33;20158;-78
2020/12/25 05:53:24;;;;;;;7.93;1.23;;;;;;;;;;4360688;33;20127;-78
2020/12/25 05:55:52;;;;;;;6.33;1.40;;;;;;;;;;4360859;32;20205;-78
2020/12/25 05:58:19;;;;;;;6.57;0.90;;;;;;;;;;4359448;33;20254;-78
2020/12/25 06:01:11;;;;;;;7.63;1.23;;;;;;;;;;4360496;33;20238;-78
2020/12/25 06:03:44;;;;;;;5.50;1.00;;;;;;;;;;4357510;32;20150;-78
2020/12/25 06:06:20;;;;;;;;;;;;;;;;;;;;;
2020/12/25 06:08:49;;;;;;;6.43;0.90;;;;;;;;;;4362512;32;20127;-77
2020/12/25 06:11:33;;;;;;;7.97;1.20;;;;;;;;;;4367202;33;20135;-78
2020/12/25 06:13:59;;;;;;;4.40;1.10;;;;;;;;;;4353296;33;20245;-79
2020/12/25 06:16:32;;;;;;;7.83;1.60;;;;;;;;;;4358764;33;20478;-77
2020/12/25 06:19:57;;;;;;;3.50;1.00;;;;;;;;;;4356846;33;20174;-79
2020/12/25 06:22:25;;;;;;;5.00;0.77;;;;;;;;;;4346205;33;20163;-78
2020/12/25 06:25:07;;;;;;;4.67;0.90;;;;;;;;;;4347166;33;20185;-78
2020/12/25 06:27:46;;;;;;;6.57;0.90;;;;;;;;;;4347197;33;20268;-78
2020/12/25 06:30:38;;;;;;;3.30;0.90;;;;;;;;;;4346683;33;20167;-78
2020/12/25 06:33:14;;;;;;;10.43;1.43;;;;;;;;;;4361090;32;20155;-78
2020/12/25 06:36:04;;;;;;;5.03;0.90;;;;;;;;;;4360503;32;20161;-77
2020/12/25 06:38:39;;;;;;;4.13;0.80;;;;;;;;;;4346504;33;20163;-78
2020/12/25 06:41:11;;;;;;;7.47;1.37;;;;;;;;;;4360449;33;20138;-78
2020/12/25 06:43:37;;;;;;;5.47;0.80;;;;;;;;;;4347261;33;20146;-77
2020/12/25 06:46:12;;;;;;;6.13;0.93;;;;;;;;;;4360251;33;20544;-78
2020/12/25 06:48:48;;;;;;;12.67;1.37;;;;;;;;;;4346020;33;20166;-78
2020/12/25 06:51:39;;;;;;;8.27;1.03;;;;;;;;;;4359972;33;20123;-78
2020/12/25 06:54:06;;;;;;;6.23;0.90;;;;;;;;;;4340421;33;20160;-78
2020/12/25 06:56:40;;;;;;;4.60;0.70;;;;;;;;;;4359944;33;20529;-78
2020/12/25 06:59:15;;;;;;;5.90;1.00;;;;;;;;;;4360237;33;20146;-78
2020/12/25 07:01:44;;;;;;;5.60;1.40;;;;;;;;;;4362829;32;20116;-77
2020/12/25 07:04:34;;;;;;;4.80;0.93;;;;;;;;;;4349203;33;20158;-78
2020/12/25 07:07:29;;;;;;;5.93;0.90;;;;;;;;;;4362692;33;20158;-78
2020/12/25 07:09:59;;;;;;;8.80;1.00;;;;;;;;;;4296793;33;20641;-77
2020/12/25 07:12:54;;;;;;;6.23;0.93;;;;;;;;;;4363203;32;20131;-76
2020/12/25 07:15:29;;;;;;;6.23;1.37;;;;;;;;;;4350486;33;20155;-77
2020/12/25 07:18:01;;;;;;;7.77;1.20;;;;;;;;;;4363905;32;20149;-79
2020/12/25 07:20:39;;;;;;;8.83;1.40;;;;;;;;;;4352413;33;20155;-78
2020/12/25 07:23:04;;;;;;;7.40;1.17;;;;;;;;;;4349887;33;20175;-79
2020/12/25 07:25:29;;;;;;;8.37;1.20;;;;;;;;;;4363214;32;20166;-78
2020/12/25 07:27:56;;;;;;;9.37;1.37;;;;;;;;;;4349087;33;20174;-77
2020/12/25 07:30:21;;;;;;;5.90;1.10;;;;;;;;;;4362347;32;20234;-78
2020/12/25 07:32:54;;;;;;;6.87;1.10;;;;;;;;;;4361262;32;20217;-77
2020/12/25 07:35:21;;;;;;;10.93;1.37;;;;;;;;;;4362858;33;20162;-77
2020/12/25 07:38:07;;;;;;;10.00;1.40;;;;;;;;;;4362407;32;20162;-78
2020/12/25 07:40:45;;;;;;;;;;;;;;;;;;;;;
2020/12/25 07:43:11;;;;;;;11.07;1.50;;;;;;;;;;4363235;32;20567;-77
2020/12/25 07:45:47;;;;;;;;;;;;;;;;;;;;;
2020/12/25 07:48:19;;;;;;;10.93;1.40;;;;;;;;;;4362832;33;20161;-78
2020/12/25 07:51:02;;;;;;;;;;;;;;;;;;;;;
2020/12/25 07:53:37;;;;;;;8.63;1.33;;;;;;;;;;4362598;32;20162;-78
2020/12/25 07:56:06;;;;;;;8.03;1.57;;;;;;;;;;4362130;33;20560;-77
2020/12/25 07:58:53;;;;;;;7.17;1.30;;;;;;;;;;4361954;32;20178;-78
2020/12/25 08:01:19;;;;;;;2.80;1.13;;;;;;;;;;4349133;33;20478;-77
2020/12/25 08:03:45;;;;;;;5.97;1.23;;;;;;;;;;4362070;33;20147;-77
2020/12/25 08:06:12;;;;;;;4.70;1.20;;;;;;;;;;4348310;33;20522;-77
2020/12/25 08:08:40;;;;;;;6.47;0.97;;;;;;;;;;4348304;33;20643;-77
2020/12/25 08:11:06;;;;;;;3.73;0.80;;;;;;;;;;4362171;32;20135;-77
2020/12/25 08:13:37;;;;;;;4.20;1.30;;;;;;;;;;4347711;33;20199;-77
2020/12/25 08:16:21;;;;;;;6.47;0.80;;;;;;;;;;4348467;33;20155;-77
2020/12/25 08:18:55;;;;;;;6.40;1.07;;;;;;;;;;4362042;33;20517;-78
2020/12/25 08:21:21;;;;;;;2.47;0.80;;;;;;;;;;4362313;32;20154;-77
2020/12/25 08:23:46;;;;;;;3.70;1.60;;;;;;;;;;4361493;33;20135;-77
2020/12/25 08:26:12;;;;;;;7.53;1.50;;;;;;;;;;4348262;33;20281;-77
2020/12/25 08:28:46;;;;;;;5.03;0.80;;;;;;;;;;4361629;32;20132;-77
2020/12/25 08:31:35;;;;;;;6.33;0.87;;;;;;;;;;4361718;32;20186;-78
2020/12/25 08:34:01;;;;;;;4.47;0.90;;;;;;;;;;4348907;33;20159;-77
2020/12/25 08:36:32;;;;;;;2.97;0.80;;;;;;;;;;4347837;33;20607;-77
2020/12/25 08:38:57;;;;;;;3.63;0.93;;;;;;;;;;4348211;33;20155;-77
2020/12/25 08:41:29;;;;;;;4.50;1.10;;;;;;;;;;4347817;33;20189;-79
2020/12/25 08:44:34;;;;;;;1.83;0.83;;;;;;;;;;4347764;33;20243;-79
2020/12/25 08:47:13;;;;;;;4.23;1.03;;;;;;;;;;4361398;32;20221;-79
2020/12/25 08:49:38;;;;;;;7.07;0.90;;;;;;;;;;4361960;32;20154;-79
2020/12/25 08:52:19;;;;;;;3.27;0.97;;;;;;;;;;4348241;32;20182;-78
2020/12/25 08:54:54;;;;;;;3.73;0.90;;;;;;;;;;4361598;32;20147;-78
2020/12/25 08:57:19;;;;;;;8.13;1.10;;;;;;;;;;4361515;32;20131;-78
2020/12/25 08:59:47;;;;;;;2.73;0.80;;;;;;;;;;4361045;32;20226;-78
2020/12/25 09:02:15;;;;;;;7.40;1.40;;;;;;;;;;4361107;32;20193;-78
2020/12/25 09:04:49;;;;;;;5.63;1.17;;;;;;;;;;4347489;33;20171;-85
2020/12/25 09:07:15;;;;;;;4.87;1.00;;;;;;;;;;4361743;32;20201;-79
2020/12/25 09:09:43;;;;;;;3.10;1.00;;;;;;;;;;4347470;33;20185;-79
2020/12/25 09:12:08;;;;;;;9.13;1.27;;;;;;;;;;4361142;32;20131;-78
2020/12/25 09:14:34;;;;;;;12.57;1.47;;;;;;;;;;4361488;32;20127;-79
2020/12/25 09:16:59;;;;;;;8.20;1.50;;;;;;;;;;4347400;33;20167;-79
2020/12/25 09:19:36;;;;;;;10.40;1.63;;;;;;;;;;4347784;33;20162;-78
2020/12/25 09:22:01;;;;;;;5.53;1.00;;;;;;;;;;4347293;33;20492;-78
2020/12/25 09:24:27;;;;;;;8.60;1.10;;;;;;;;;;4360735;32;20123;-79
2020/12/25 09:26:52;;;;;;;3.73;0.90;;;;;;;;;;4347416;33;20187;-77
2020/12/25 09:29:17;;;;;;;4.87;1.00;;;;;;;;;;4347045;33;20549;-77
2020/12/25 09:31:46;;;;;;;5.13;0.87;;;;;;;;;;4361296;32;20190;-77
2020/12/25 09:34:14;;;;;;;5.47;1.00;;;;;;;;;;4347435;33;20182;-77
2020/12/25 09:36:41;;;;;;;4.10;1.03;;;;;;;;;;4360665;32;20131;-77
2020/12/25 09:39:28;;;;;;;5.93;1.20;;;;;;;;;;4347163;33;20572;-78
2020/12/25 09:42:03;;;;;;;8.83;1.00;;;;;;;;;;4360553;32;20217;-77
2020/12/25 09:44:36;;;;;;;6.47;0.90;;;;;;;;;;4448804;32;20199;-78
2020/12/25 09:47:02;;;;;;;5.30;0.90;;;;;;;;;;4449151;32;20569;-79
2020/12/25 09:49:27;;;;;;;2.50;0.70;;;;;;;;;;4434888;32;20157;-79
2020/12/25 09:51:55;;;;;;;5.77;1.10;;;;;;;;;;4435528;32;20158;-78
2020/12/25 09:54:20;;;;;;;10.00;0.90;;;;;;;;;;4434448;32;20157;-77
2020/12/25 09:56:48;;;;;;;4.03;1.13;;;;;;;;;;4449435;32;20160;-78
2020/12/25 09:59:16;;;;;;;5.90;1.27;;;;;;;;;;4434843;32;20587;-79
2020/12/25 10:01:41;;;;;;;5.97;1.07;;;;;;;;;;4434599;32;20156;-80
2020/12/25 10:04:06;;;;;;;5.87;1.20;;;;;;;;;;4434409;32;20237;-79
2020/12/25 10:06:31;;;;;;;6.47;1.20;;;;;;;;;;4434536;32;20275;-78
2020/12/25 10:09:00;;;;;;;10.23;1.10;;;;;;;;;;4448964;32;20546;-77
2020/12/25 10:11:25;;;;;;;7.17;1.60;;;;;;;;;;4434187;32;20483;-78
2020/12/25 10:13:50;;;;;;;6.60;1.17;;;;;;;;;;4448522;32;20125;-78
2020/12/25 10:16:21;;;;;;;5.63;1.10;;;;;;;;;;4449092;32;20156;-80
2020/12/25 10:18:46;;;;;;;7.67;1.30;;;;;;;;;;4434827;32;20545;-79
2020/12/25 10:21:15;;;;;;;6.43;1.40;;;;;;;;;;4434382;32;20617;-79
2020/12/25 10:23:40;;;;;;;6.53;1.30;;;;;;;;;;4434241;32;20232;-79
2020/12/25 10:26:06;;;;;;;4.73;1.10;;;;;;;;;;4442113;32;20501;-77
2020/12/25 10:28:31;;;;;;;7.60;1.33;;;;;;;;;;4433377;32;20130;-77
2020/12/25 10:30:56;;;;;;;5.53;1.30;;;;;;;;;;4433896;32;20173;-78
2020/12/25 10:33:21;;;;;;;7.57;1.43;;;;;;;;;;4442570;32;20451;-78
2020/12/25 10:35:50;;;;;;;4.87;1.63;;;;;;;;;;4448165;32;20202;-77
2020/12/25 10:38:21;;;;;;;7.93;1.63;;;;;;;;;;4448109;32;20247;-78
2020/12/25 10:41:06;;;;;;;8.67;1.67;;;;;;;;;;4433960;32;20166;-79
2020/12/25 10:43:48;;;;;;;8.00;1.43;;;;;;;;;;4447831;32;20187;-80
2020/12/25 10:46:19;;;;;;;5.97;1.40;;;;;;;;;;4448394;32;20117;-79
2020/12/25 10:48:44;;;;;;;6.97;1.20;;;;;;;;;;4434363;32;20184;-79
2020/12/25 10:51:10;;;;;;;8.80;1.50;;;;;;;;;;4448204;32;20149;-79
2020/12/25 10:53:37;;;;;;;5.73;1.60;;;;;;;;;;4434094;32;20203;-78
2020/12/25 10:56:06;;;;;;;8.00;1.60;;;;;;;;;;4437657;32;20577;-79
2020/12/25 10:58:31;;;;;;;4.57;1.13;;;;;;;;;;4439295;32;20164;-78
2020/12/25 11:00:57;;;;;;;5.90;0.77;;;;;;;;;;4439933;32;20142;-78
2020/12/25 11:03:22;;;;;;;2.97;0.80;;;;;;;;;;4413327;32;20166;-79
2020/12/25 11:06:05;;;;;;;4.17;0.83;;;;;;;;;;4422393;32;20463;-80
2020/12/25 11:08:36;;;;;;;2.93;1.20;;;;;;;;;;4422761;32;20133;-78
2020/12/25 11:11:04;;;;;;;7.10;1.40;;;;;;;;;;4422784;32;20156;-79
2020/12/25 11:13:34;;;;;;;4.37;1.07;;;;;;;;;;4422902;32;20615;-80
2020/12/25 11:15:59;;;;;;;3.13;1.20;;;;;;;;;;4421878;32;20161;-80
2020/12/25 11:18:28;;;;;;;4.77;1.27;;;;;;;;;;4422424;32;20435;-80
2020/12/25 11:20:59;;;;;;;7.27;1.17;;;;;;;;;;4422152;32;20165;-80
2020/12/25 11:23:24;;;;;;;5.97;1.07;;;;;;;;;;4408219;32;20495;-79
2020/12/25 11:25:57;;;;;;;5.03;1.00;;;;;;;;;;4422231;32;20519;-79
2020/12/25 11:28:26;;;;;;;6.50;1.20;;;;;;;;;;4422420;32;20179;-79
2020/12/25 11:30:54;;;;;;;2.53;1.10;;;;;;;;;;4422069;32;20154;-79
2020/12/25 11:33:21;;;;;;;4.20;1.20;;;;;;;;;;4421551;32;20576;-79
2020/12/25 11:35:47;;;;;;;6.30;1.20;;;;;;;;;;4421630;32;20172;-78
2020/12/25 11:38:12;;;;;;;5.37;0.90;;;;;;;;;;4422185;32;20153;-78
2020/12/25 11:40:37;;;;;;;10.57;1.40;;;;;;;;;;4421795;32;20536;-78
2020/12/25 11:43:08;;;;;;;6.03;1.40;;;;;;;;;;4421983;32;20184;-79
2020/12/25 11:45:42;;;;;;;4.90;1.20;;;;;;;;;;4408045;32;20220;-78
2020/12/25 11:48:07;;;;;;;4.00;0.90;;;;;;;;;;4422376;32;20134;-78
2020/12/25 11:50:38;;;;;;;6.23;1.43;;;;;;;;;;4422006;32;20168;-77
2020/12/25 11:53:03;;;;;;;6.17;1.90;;;;;;;;;;4422007;32;20420;-79
2020/12/25 11:55:31;;;;;;;5.30;1.20;;;;;;;;;;4407902;32;20227;-79
2020/12/25 11:57:56;;;;;;;4.07;1.90;;;;;;;;;;4421470;32;20138;-78
2020/12/25 12:00:21;;;;;;;5.57;1.13;;;;;;;;;;4421240;32;20150;-78
2020/12/25 12:02:47;;;;;;;4.97;1.17;;;;;;;;;;4421852;32;20157;-77
2020/12/25 12:05:15;;;;;;;8.43;1.50;;;;;;;;;;4421659;32;20134;-77
2020/12/25 12:07:41;;;;;;;6.00;1.13;;;;;;;;;;4406716;32;20192;-76
2020/12/25 12:10:06;;;;;;;4.57;1.07;;;;;;;;;;4421690;32;20138;-76
2020/12/25 12:12:34;;;;;;;9.80;1.87;;;;;;;;;;4421484;32;20536;-77
2020/12/25 12:14:59;;;;;;;3.70;0.80;;;;;;;;;;4421351;32;20172;-77
2020/12/25 12:17:24;;;;;;;4.37;0.90;;;;;;;;;;4407609;32;20234;-77
2020/12/25 12:19:50;;;;;;;5.60;1.00;;;;;;;;;;4407137;32;20169;-78
2020/12/25 12:22:15;;;;;;;2.92;0.98;;;;;;;;;;4420840;32;20164;-77
2020/12/25 12:24:45;;;;;;;3.20;0.70;;;;;;;;;;4421963;32;20161;-78
2020/12/25 12:27:10;;;;;;;2.12;0.68;;;;;;;;;;4436874;32;20154;-78
2020/12/25 12:29:41;;;;;;;2.28;0.70;;;;;;;;;;4436860;32;20160;-78
2020/12/25 12:32:06;;;;;;;6.22;1.12;;;;;;;;;;4436775;32;20206;-78
2020/12/25 12:34:37;;;;;;;2.83;0.90;;;;;;;;;;4436493;32;20137;-78
2020/12/25 12:37:08;;;;;;;3.33;0.98;;;;;;;;;;4436491;32;20168;-78
2020/12/25 12:39:36;;;;;;;2.85;0.98;;;;;;;;;;4422044;32;20193;-78
2020/12/25 12:42:01;;;;;;;4.22;0.77;;;;;;;;;;4422245;32;20187;-78
2020/12/25 12:44:26;;;;;;;3.47;1.10;;;;;;;;;;4435938;32;20157;-78
2020/12/25 12:46:54;;;;;;;3.78;1.00;;;;;;;;;;4436116;32;20211;-79
2020/12/25 12:49:25;;;;;;;4.65;1.02;;;;;;;;;;4436165;32;20177;-78
2020/12/25 12:51:58;;;;;;;9.23;1.40;;;;;;;;;;4436149;32;20213;-78
2020/12/25 12:54:32;;;;;;;5.62;1.10;;;;;;;;;;4425332;32;20188;-78
2020/12/25 12:57:00;;;;;;;3.72;1.25;;;;;;;;;;4435259;32;20145;-78
2020/12/25 12:59:37;;;;;;;5.62;1.37;;;;;;;;;;4435979;32;20210;-78
2020/12/25 13:02:02;;;;;;;5.28;1.70;;;;;;;;;;4436367;32;20144;-79
2020/12/25 13:04:28;;;;;;;4.12;1.15;;;;;;;;;;4435854;32;20174;-78
2020/12/25 13:06:53;;;;;;;4.82;1.23;;;;;;;;;;4418568;32;20169;-79
2020/12/25 13:09:18;;;;;;;4.45;1.30;;;;;;;;;;4436184;32;20526;-78
2020/12/25 13:11:44;;;;;;;2.72;1.27;;;;;;;;;;4436146;32;20133;-78
2020/12/25 13:14:09;;;;;;;3.58;1.35;;;;;;;;;;4424958;32;20209;-78
2020/12/25 13:16:38;;;;;;;7.40;1.17;;;;;;;;;;4406847;32;20215;-78
2020/12/25 13:19:03;;;;;;;5.80;1.52;;;;;;;;;;4421200;32;20138;-78
2020/12/25 13:21:29;;;;;;;4.07;1.58;;;;;;;;;;4406594;32;20277;-79
2020/12/25 13:23:55;;;;;;;6.10;1.15;;;;;;;;;;4420151;32;20187;-78
2020/12/25 13:26:21;;;;;;;7.40;1.17;;;;;;;;;;4420663;32;20543;-78
2020/12/25 13:28:46;;;;;;;6.97;1.83;;;;;;;;;;4420322;32;20157;-79
2020/12/25 13:31:21;;;;;;;6.73;1.97;;;;;;;;;;4420590;32;20312;-79
2020/12/25 13:33:52;;;;;;;3.40;1.50;;;;;;;;;;4420569;32;20136;-79
2020/12/25 13:36:18;;;;;;;4.77;2.40;;;;;;;;;;4420701;32;20207;-80
2020/12/25 13:38:48;;;;;;;4.23;1.70;;;;;;;;;;4421262;32;20540;-78
2020/12/25 13:41:17;;;;;;;4.17;1.20;;;;;;;;;;4420166;32;20176;-79
2020/12/25 13:43:45;;;;;;;8.83;1.77;;;;;;;;;;4404849;32;20186;-79
2020/12/25 13:46:11;;;;;;;3.90;0.87;;;;;;;;;;4420259;32;20183;-79
2020/12/25 13:48:39;;;;;;;3.53;1.15;;;;;;;;;;4419541;32;20142;-80
2020/12/25 13:51:07;;;;;;;7.45;1.60;;;;;;;;;;4420453;32;20138;-77
2020/12/25 13:54:20;;;;;;;5.45;1.33;;;;;;;;;;4419677;32;20461;-78
2020/12/25 13:56:32;;;;;;;4.67;1.30;;;;;;;;;;4409873;32;20212;-78
2020/12/25 13:58:57;;;;;;;2.97;1.00;;;;;;;;;;4419681;32;20198;-79
2020/12/25 14:01:25;;;;;;;3.85;1.40;;;;;;;;;;4419903;32;20137;-78
2020/12/25 14:03:50;;;;;;;4.37;1.60;;;;;;;;;;4419606;32;20212;-78
2020/12/25 14:06:16;;;;;;;4.77;0.90;;;;;;;;;;4406396;32;20193;-78
2020/12/25 14:08:42;;;;;;;2.53;1.00;;;;;;;;;;4420169;32;20142;-78
2020/12/25 14:11:10;;;;;;;4.50;1.20;;;;;;;;;;4419764;32;20191;-77
2020/12/25 14:13:35;;;;;;;7.43;2.50;;;;;;;;;;4406092;32;20192;-77
2020/12/25 14:16:13;;;;;;;6.87;1.50;;;;;;;;;;4420414;32;20228;-77
2020/12/25 14:18:50;;;;;;;4.57;1.30;;;;;;;;;;4406429;32;20165;-77
2020/12/25 14:21:18;;;;;;;5.13;1.73;;;;;;;;;;4420740;32;20133;-78
2020/12/25 14:23:44;;;;;;;6.80;1.83;;;;;;;;;;4420248;32;20586;-78
2020/12/25 14:26:19;;;;;;;4.70;1.20;;;;;;;;;;4431747;32;20181;-78
2020/12/25 14:28:55;;;;;;;4.23;1.50;;;;;;;;;;4435755;32;20160;-78
2020/12/25 14:31:44;;;;;;;5.73;1.83;;;;;;;;;;4438596;32;20271;-78
2020/12/25 14:34:17;;;;;;;7.53;3.07;;;;;;;;;;4439889;32;20200;-78
2020/12/25 14:36:49;;;;;;;7.30;3.10;;;;;;;;;;4424365;32;20591;-78
2020/12/25 14:39:14;;;;;;;7.03;2.50;;;;;;;;;;4438505;32;20168;-78
2020/12/25 14:41:42;;;;;;;5.77;2.00;;;;;;;;;;4438168;32;20157;-77
2020/12/25 14:44:08;;;;;;;10.43;4.33;;;;;;;;;;4424117;32;20204;-78
2020/12/25 14:46:53;;;;;;;8.07;3.10;;;;;;;;;;4438281;32;20164;-78
2020/12/25 14:49:24;;;;;;;10.47;3.20;;;;;;;;;;4437883;32;20497;-78
2020/12/25 14:51:49;;;;;;;8.33;3.67;;;;;;;;;;4424083;32;20243;-78
2020/12/25 14:54:22;;;;;;;8.77;2.20;;;;;;;;;;4437690;32;20550;-77
2020/12/25 14:56:53;;;;;;;8.10;2.40;;;;;;;;;;4438991;32;20183;-79
2020/12/25 14:59:18;;;;;;;11.17;4.03;;;;;;;;;;4438220;32;20145;-79
2020/12/25 15:01:44;;;;;;;10.50;2.80;;;;;;;;;;4437829;32;20613;-78
2020/12/25 15:04:09;;;;;;;6.10;1.50;;;;;;;;;;4437366;32;20497;-78
2020/12/25 15:06:43;;;;;;;11.23;2.33;;;;;;;;;;4437123;32;20145;-78
2020/12/25 15:09:11;;;;;;;10.67;2.10;;;;;;;;;;4438179;32;20141;-78
2020/12/25 15:11:46;;;;;;;13.87;2.53;;;;;;;;;;4437125;32;20175;-78
2020/12/25 15:14:17;;;;;;;10.13;2.60;;;;;;;;;;4424046;32;20164;-77
2020/12/25 15:16:46;;;;;;;9.17;2.43;;;;;;;;;;4438023;32;20542;-78
2020/12/25 15:19:16;;;;;;;8.33;2.83;;;;;;;;;;4423209;32;20525;-78